Time;durP1;ratioP1;P1;durP2;ratioP2;P2;SDS_P1;SDS_P2;PMS_P1;PMS_P2;Temp;Humidity;BMP_temperature;BMP_pressure;BME280_temperature;BME280_humidity;BME280_pressure;Samples;Min_cycle;Max_cycle;Signal;HPM_P1;HPM_P2
2023/10/10 00:01:00;;;;;;;11.93;6.10;;;13.80;99.90;;;;;;6246194;22;20045;-85
2023/10/10 00:03:27;;;;;;;13.55;7.03;;;13.90;99.90;;;;;;6249398;22;20031;-86
2023/10/10 00:05:57;;;;;;;15.40;7.18;;;13.80;99.90;;;;;;6276871;22;20000;-85
2023/10/10 00:08:33;;;;;;;;;;;13.70;99.90;;;;;;6249052;22;20004;-87
2023/10/10 00:10:59;;;;;;;14.65;6.10;;;13.70;99.90;;;;;;6251551;22;19907;-85
2023/10/10 00:13:25;;;;;;;13.13;6.00;;;13.60;99.90;;;;;;6251744;22;20786;-86
2023/10/10 00:15:52;;;;;;;14.15;6.32;;;13.60;99.90;;;;;;6249263;22;20003;-83
2023/10/10 00:18:19;;;;;;;18.60;6.65;;;13.60;99.90;;;;;;6277701;22;19999;-86
2023/10/10 00:21:28;;;;;;;15.07;6.75;;;13.50;99.90;;;;;;6251252;22;20036;-86
2023/10/10 00:31:55;;;;;;;13.68;6.70;;;13.30;99.90;;;;;;6282082;22;20027;-82
2023/10/10 00:35:07;;;;;;;13.13;6.97;;;11.60;99.90;;;;;;6284662;22;20477;-82
2023/10/10 00:38:38;;;;;;;13.65;6.50;;;13.30;99.90;;;;;;6249853;23;20004;-81
2023/10/10 00:42:19;;;;;;;14.43;6.30;;;13.20;99.90;;;;;;6249285;23;20015;-82
2023/10/10 00:45:21;;;;;;;15.52;7.25;;;11.70;99.90;;;;;;6232776;23;20016;-83
2023/10/10 00:48:21;;;;;;;16.95;6.60;;;13.20;99.90;;;;;;6254643;23;20502;-83
2023/10/10 00:51:11;;;;;;;12.18;6.40;;;13.20;99.90;;;;;;6258054;23;20012;-82
2023/10/10 00:54:26;;;;;;;15.30;6.57;;;13.10;99.90;;;;;;6255953;23;20275;-81
2023/10/10 00:57:37;;;;;;;14.80;7.05;;;13.10;99.90;;;;;;6252596;23;20114;-84
2023/10/10 01:00:30;;;;;;;15.25;6.90;;;12.00;99.90;;;;;;6205876;23;20012;-84
2023/10/10 01:03:24;;;;;;;13.88;6.72;;;13.10;99.90;;;;;;6228913;23;20016;-82
2023/10/10 01:06:39;;;;;;;17.27;7.30;;;13.00;99.90;;;;;;6252637;23;20004;-81
2023/10/10 01:10:11;;;;;;;13.13;6.18;;;13.00;99.90;;;;;;6255567;23;20004;-83
2023/10/10 01:13:15;;;;;;;15.05;5.93;;;13.00;99.90;;;;;;6252943;23;20015;-81
2023/10/10 01:16:39;;;;;;;12.63;5.88;;;12.80;99.90;;;;;;6255240;23;20015;-82
2023/10/10 01:19:59;;;;;;;14.05;6.53;;;12.70;99.90;;;;;;6226977;23;20011;-81
2023/10/10 01:22:40;;;;;;;10.98;5.65;;;12.70;99.90;;;;;;6225038;23;20032;-84
2023/10/10 01:25:46;;;;;;;11.98;5.95;;;12.60;99.90;;;;;;6229705;23;20030;-82
2023/10/10 01:28:27;;;;;;;12.95;5.90;;;13.40;99.90;;;;;;6200575;23;20362;-83
2023/10/10 01:31:32;;;;;;;12.80;6.07;;;12.70;99.90;;;;;;6250704;23;20527;-81
2023/10/10 01:34:43;;;;;;;19.17;6.43;;;12.80;99.90;;;;;;6249509;23;20000;-80
2023/10/10 01:37:57;;;;;;;11.90;6.03;;;12.80;99.90;;;;;;6250488;23;20009;-82
2023/10/10 01:41:21;;;;;;;14.15;7.15;;;12.70;99.90;;;;;;6218301;23;20014;-81
2023/10/10 01:44:27;;;;;;;15.52;6.20;;;12.70;99.90;;;;;;6249204;23;20016;-82
2023/10/10 01:48:08;;;;;;;14.95;6.47;;;12.70;99.90;;;;;;6250816;23;20004;-81
2023/10/10 01:51:08;;;;;;;13.73;7.18;;;12.70;99.90;;;;;;6251819;23;20006;-82
2023/10/10 01:54:20;;;;;;;16.05;7.15;;;12.70;99.90;;;;;;6229400;23;20311;-82
2023/10/10 01:57:30;;;;;;;18.23;7.20;;;12.60;99.90;;;;;;6253647;23;20012;-81
2023/10/10 02:00:34;;;;;;;16.30;7.18;;;12.70;99.90;;;;;;6250928;23;20012;-85
2023/10/10 02:03:27;;;;;;;17.38;7.43;;;14.10;99.90;;;;;;6253802;23;20012;-83
2023/10/10 02:06:30;;;;;;;14.50;7.22;;;12.60;99.90;;;;;;6226541;23;20004;-83
2023/10/10 02:09:37;;;;;;;15.45;6.38;;;12.60;99.90;;;;;;6235473;23;20012;-81
2023/10/10 02:12:12;;;;;;;12.35;6.80;;;12.60;99.90;;;;;;6256113;23;20008;-81
2023/10/10 02:15:19;;;;;;;14.63;7.38;;;12.60;99.90;;;;;;6231344;23;20079;-80
2023/10/10 02:18:32;;;;;;;18.85;7.30;;;12.70;99.90;;;;;;6256996;23;20004;-82
2023/10/10 02:21:43;;;;;;;14.18;6.57;;;12.50;99.90;;;;;;6253018;23;20461;-82
2023/10/10 02:24:40;;;;;;;13.98;6.13;;;12.40;99.90;;;;;;6258153;23;20008;-83
2023/10/10 02:31:28;;;;;;;13.00;5.97;;;12.40;99.90;;;;;;6257422;23;20020;-82
2023/10/10 02:34:47;;;;;;;11.48;6.03;;;12.30;99.90;;;;;;6229264;23;20079;-82
2023/10/10 02:38:12;;;;;;;12.85;6.15;;;12.30;99.90;;;;;;6252921;23;20004;-81
2023/10/10 02:41:26;;;;;;;15.38;6.82;;;12.30;99.90;;;;;;6225231;23;20279;-82
2023/10/10 02:44:57;;;;;;;13.95;6.57;;;12.30;99.90;;;;;;6249092;23;20080;-82
2023/10/10 02:48:07;;;;;;;14.30;5.82;;;12.20;99.90;;;;;;6236064;23;20047;-82
2023/10/10 02:51:15;;;;;;;13.38;6.47;;;12.10;99.90;;;;;;6231216;23;20019;-82
2023/10/10 02:54:20;;;;;;;16.15;5.85;;;12.20;99.90;;;;;;6257097;23;20000;-82
2023/10/10 02:57:27;;;;;;;11.30;5.53;;;10.90;99.90;;;;;;6263713;23;20004;-83
2023/10/10 03:00:28;;;;;;;13.45;5.85;;;12.50;99.90;;;;;;6236680;23;20381;-83
2023/10/10 03:03:39;;;;;;;10.70;5.85;;;12.20;99.90;;;;;;6253541;23;20024;-82
2023/10/10 03:06:11;;;;;;;12.00;5.70;;;12.10;99.90;;;;;;6248314;22;20000;-84
2023/10/10 03:08:51;;;;;;;18.00;6.45;;;10.70;99.90;;;;;;6244780;22;20052;-84
2023/10/10 03:12:04;;;;;;;16.92;6.07;;;12.00;99.90;;;;;;6245901;22;20003;-83
2023/10/10 03:14:53;;;;;;;13.07;6.03;;;11.90;99.90;;;;;;6243539;22;20067;-84
2023/10/10 03:18:04;;;;;;;15.65;5.75;;;11.90;99.90;;;;;;6264774;22;20008;-82
2023/10/10 03:23:32;;;;;;;12.50;6.00;;;11.90;99.90;;;;;;6224176;23;20012;-82
2023/10/10 03:27:01;;;;;;;16.92;6.25;;;10.60;99.90;;;;;;6227112;23;20008;-82
2023/10/10 03:29:37;;;;;;;13.52;5.95;;;11.50;99.90;;;;;;6247330;23;20020;-84
2023/10/10 03:32:32;;;;;;;11.63;5.55;;;12.00;99.90;;;;;;6251689;23;20385;-82
2023/10/10 03:35:06;;;;;;;10.32;5.60;;;11.90;99.90;;;;;;6229600;23;20122;-82
2023/10/10 03:38:04;;;;;;;13.15;5.63;;;11.90;99.90;;;;;;6230268;23;20016;-82
2023/10/10 03:41:24;;;;;;;14.10;5.85;;;11.90;99.90;;;;;;6233218;23;20023;-84
2023/10/10 12:24:06;;;;;;;11.93;5.15;;;20.90;99.90;;;;;;6244033;23;20047;-81
2023/10/10 12:26:38;;;;;;;13.68;5.50;;;20.20;99.90;;;;;;6206269;23;20017;-81
2023/10/10 12:29:05;;;;;;;12.13;5.75;;;21.00;99.90;;;;;;6207146;23;20026;-81
2023/10/10 12:31:34;;;;;;;14.07;5.80;;;21.00;99.90;;;;;;6176265;23;20019;-81
2023/10/10 12:34:01;;;;;;;13.85;4.82;;;21.10;99.90;;;;;;6197873;23;20011;-81
2023/10/10 12:36:32;;;;;;;10.80;5.22;;;21.20;99.90;;;;;;6220286;23;20078;-80
2023/10/10 12:38:59;;;;;;;12.80;5.70;;;21.20;99.90;;;;;;6221083;23;19997;-81
2023/10/10 12:41:27;;;;;;;11.32;6.28;;;21.30;99.90;;;;;;6195059;23;20026;-82
2023/10/10 12:43:54;;;;;;;17.45;6.03;;;21.30;99.90;;;;;;6220917;23;20039;-81
2023/10/10 12:46:24;;;;;;;13.45;5.85;;;21.30;99.90;;;;;;6220168;23;20005;-81
2023/10/10 12:48:54;;;;;;;18.00;5.60;;;21.40;99.90;;;;;;6217786;23;20008;-81
2023/10/10 12:51:30;;;;;;;14.98;6.28;;;21.40;99.90;;;;;;6197241;23;20335;-81
2023/10/10 12:54:05;;;;;;;9.73;4.97;;;21.40;99.90;;;;;;6193181;23;20031;-82
2023/10/10 12:56:48;;;;;;;12.35;4.90;;;21.60;99.90;;;;;;6218494;23;20497;-81
2023/10/10 12:59:18;;;;;;;10.85;5.00;;;21.10;99.90;;;;;;6194420;23;20450;-82
2023/10/10 13:02:00;;;;;;;11.25;4.93;;;22.30;99.90;;;;;;6220076;23;20334;-83
2023/10/10 13:04:45;;;;;;;9.38;4.80;;;21.00;99.90;;;;;;6193353;23;20009;-81
2023/10/10 13:07:46;;;;;;;14.75;5.43;;;21.70;99.90;;;;;;6193686;23;20007;-82
2023/10/10 13:10:13;;;;;;;15.73;5.00;;;21.80;99.90;;;;;;6219445;23;20032;-82
2023/10/10 13:12:57;;;;;;;14.55;5.35;;;21.70;99.90;;;;;;6194589;23;20398;-81
2023/10/10 13:15:47;;;;;;;10.80;4.43;;;21.90;99.90;;;;;;6194714;23;20347;-81
2023/10/10 13:18:27;;;;;;;12.55;5.97;;;21.30;99.90;;;;;;6220075;23;20013;-81
2023/10/10 13:21:00;;;;;;;14.82;5.65;;;22.20;99.90;;;;;;6220557;23;20001;-81
2023/10/10 13:23:35;;;;;;;15.63;5.97;;;22.10;99.90;;;;;;6192249;23;20005;-81
2023/10/10 13:26:22;;;;;;;14.65;5.70;;;22.10;99.90;;;;;;6220342;23;20402;-81
2023/10/10 13:29:01;;;;;;;9.80;4.88;;;22.10;99.90;;;;;;6220441;23;20008;-82
2023/10/10 13:31:38;;;;;;;15.32;5.13;;;22.10;99.90;;;;;;6192980;23;20007;-81
2023/10/10 13:34:29;;;;;;;9.70;4.88;;;22.40;99.90;;;;;;6194298;23;20011;-79
2023/10/10 13:37:07;;;;;;;10.68;4.72;;;22.50;99.90;;;;;;6173529;23;20091;-84
2023/10/10 13:39:57;;;;;;;11.25;5.10;;;22.60;99.90;;;;;;6214530;23;20016;-82
2023/10/10 13:42:28;;;;;;;14.57;5.03;;;22.70;99.90;;;;;;6195135;23;20450;-81
2023/10/10 13:45:11;;;;;;;18.80;10.77;;;22.70;99.90;;;;;;6212996;23;20427;-81
2023/10/10 13:47:40;;;;;;;10.43;4.95;;;22.70;99.90;;;;;;6191996;23;20004;-81
2023/10/10 13:52:53;;;;;;;13.13;5.38;;;22.70;99.90;;;;;;6220202;23;20051;-81
2023/10/10 13:55:23;;;;;;;9.27;5.03;;;22.50;99.90;;;;;;6221431;23;20012;-80
2023/10/10 13:57:53;;;;;;;11.30;4.70;;;22.60;99.90;;;;;;6218874;23;20005;-81
2023/10/10 14:00:41;;;;;;;;;;;22.60;99.90;;;;;;6195601;23;20009;-81
2023/10/10 14:03:14;;;;;;;12.85;5.07;;;22.30;99.90;;;;;;6198727;23;19958;-81
2023/10/10 14:06:00;;;;;;;9.18;5.13;;;22.50;99.90;;;;;;6195024;23;20016;-81
2023/10/10 14:08:34;;;;;;;10.25;4.88;;;22.40;99.90;;;;;;6218468;23;20072;-81
2023/10/10 14:11:02;;;;;;;9.70;5.03;;;22.30;99.90;;;;;;6195817;23;20335;-81
2023/10/10 14:13:32;;;;;;;12.63;4.60;;;22.30;99.90;;;;;;6220289;23;20020;-81
2023/10/10 14:16:01;;;;;;;10.90;4.40;;;22.30;99.90;;;;;;6220331;23;20054;-81
2023/10/10 14:18:41;;;;;;;10.93;4.75;;;22.20;99.90;;;;;;6217827;23;20012;-80
2023/10/10 14:21:10;;;;;;;14.52;5.57;;;22.20;99.90;;;;;;6192964;23;20442;-81
2023/10/10 14:23:40;;;;;;;8.40;4.20;;;21.70;99.90;;;;;;6170533;23;20009;-81
2023/10/10 14:26:18;;;;;;;12.05;4.25;;;22.60;99.90;;;;;;6195945;23;20008;-82
2023/10/10 14:28:50;;;;;;;10.98;4.78;;;21.70;99.90;;;;;;6195560;23;20004;-81
2023/10/10 14:31:27;;;;;;;8.85;4.95;;;22.30;99.90;;;;;;6224066;23;20397;-81
2023/10/10 14:34:00;;;;;;;11.77;4.75;;;22.30;99.90;;;;;;6221871;23;20008;-81
2023/10/10 14:36:39;;;;;;;12.05;4.45;;;22.30;99.90;;;;;;6172339;23;20470;-81
2023/10/10 14:39:28;;;;;;;11.38;6.00;;;22.30;99.90;;;;;;6224818;23;20008;-81
2023/10/10 14:42:08;;;;;;;8.20;4.93;;;22.70;99.90;;;;;;6226889;23;20008;-80
2023/10/10 14:45:03;;;;;;;7.57;4.00;;;22.20;99.90;;;;;;6233075;23;19984;-81
2023/10/10 14:47:46;;;;;;;9.70;4.85;;;22.30;99.90;;;;;;6229440;23;20377;-82
2023/10/10 14:51:05;;;;;;;9.15;4.55;;;22.50;99.90;;;;;;6223396;23;19993;-80
2023/10/10 14:53:47;;;;;;;;;;;;;;;;;;;;;
2023/10/10 14:56:19;;;;;;;9.15;4.50;;;22.30;99.90;;;;;;6221955;23;20024;-81
2023/10/10 14:59:12;;;;;;;9.32;4.28;;;22.20;99.90;;;;;;6224487;23;20076;-81
2023/10/10 15:01:59;;;;;;;9.30;4.13;;;22.20;99.90;;;;;;6199840;23;20001;-81
2023/10/10 15:05:09;;;;;;;9.95;4.65;;;22.20;99.90;;;;;;6151532;23;20008;-81
2023/10/10 15:08:07;;;;;;;15.27;4.80;;;22.10;99.90;;;;;;6130074;23;20010;-80
2023/10/10 15:11:22;;;;;;;9.55;4.38;;;22.10;99.90;;;;;;6128034;23;20018;-80
2023/10/10 15:13:50;;;;;;;9.85;4.63;;;22.10;99.90;;;;;;6126426;23;20009;-82
2023/10/10 15:16:34;;;;;;;9.27;4.40;;;22.00;99.90;;;;;;6129859;23;20006;-81
2023/10/10 15:19:45;;;;;;;10.45;4.18;;;22.00;99.90;;;;;;6217004;23;20064;-81
2023/10/10 15:22:40;;;;;;;8.23;3.88;;;21.90;99.90;;;;;;6205402;23;20008;-83
2023/10/10 15:25:19;;;;;;;9.32;4.10;;;21.80;99.90;;;;;;6210694;23;20032;-82
2023/10/10 15:28:01;;;;;;;11.85;4.28;;;21.70;99.90;;;;;;6239314;23;20084;-83
2023/10/10 15:30:38;;;;;;;11.13;4.75;;;21.40;99.90;;;;;;6214316;23;20001;-83
2023/10/10 15:33:22;;;;;;;13.43;7.47;;;21.60;99.90;;;;;;6186288;23;20008;-80
2023/10/10 15:36:06;;;;;;;9.68;4.60;;;21.60;99.90;;;;;;6228281;23;20004;-81
2023/10/10 15:38:32;;;;;;;12.95;4.63;;;21.60;99.90;;;;;;6231439;23;20001;-81
2023/10/10 15:41:34;;;;;;;;;;;;;;;;;;;;;
2023/10/10 15:44:06;;;;;;;8.25;4.20;;;21.60;99.90;;;;;;6228588;23;20040;-82
2023/10/10 15:46:58;;;;;;;10.85;4.63;;;21.60;99.90;;;;;;6201062;23;20024;-81
2023/10/10 15:49:34;;;;;;;8.07;3.85;;;21.60;99.90;;;;;;6228455;23;20001;-82
2023/10/10 15:52:08;;;;;;;11.05;5.35;;;21.60;99.90;;;;;;6198883;23;20322;-83
2023/10/10 15:55:18;;;;;;;;;;;;;;;;;;;;;
2023/10/10 15:58:08;;;;;;;;;;;;;;;;;;;;;
2023/10/10 16:00:44;;;;;;;10.52;5.45;;;21.70;99.90;;;;;;6227710;23;20020;-81
2023/10/10 16:03:31;;;;;;;11.55;5.07;;;21.50;99.90;;;;;;6201302;23;20064;-81
2023/10/10 16:06:08;;;;;;;11.57;4.70;;;21.40;99.90;;;;;;6226817;23;20043;-81
2023/10/10 16:08:57;;;;;;;;;;;;;;;;;;;;;
2023/10/10 16:11:36;;;;;;;10.38;5.00;;;21.60;99.90;;;;;;6229809;23;20047;-80
2023/10/10 16:14:28;;;;;;;12.55;5.57;;;21.10;99.90;;;;;;6200853;23;20076;-81
2023/10/10 16:24:52;;;;;;;;;;;;;;;;;;;;;
2023/10/10 16:32:29;;;;;;;14.00;6.18;;;21.00;99.90;;;;;;5996486;24;20018;-81
2023/10/10 16:35:05;;;;;;;14.27;6.07;;;20.90;99.90;;;;;;5867822;24;20014;-82
2023/10/10 16:38:30;;;;;;;14.00;5.15;;;20.80;99.90;;;;;;5924282;24;20008;-83
2023/10/10 16:42:03;;;;;;;15.07;6.15;;;20.70;99.90;;;;;;6006504;23;20422;-81
2023/10/10 16:45:16;;;;;;;15.27;5.90;;;20.50;99.90;;;;;;6076744;23;20022;-83
2023/10/10 16:48:41;;;;;;;;;;;;;;;;;;;;;
2023/10/10 16:51:59;;;;;;;13.52;6.25;;;20.00;99.90;;;;;;6150265;23;20013;-84
2023/10/10 16:58:20;;;;;;;15.15;6.47;;;20.30;99.90;;;;;;6030419;23;20703;-84
2023/10/10 17:00:55;;;;;;;15.80;7.30;;;20.20;99.90;;;;;;6138228;23;20795;-83
2023/10/10 17:03:33;;;;;;;13.40;7.07;;;20.10;99.90;;;;;;6162374;23;20013;-81
2023/10/10 17:06:22;;;;;;;10.70;5.93;;;20.10;99.90;;;;;;6157307;23;20284;-81
2023/10/10 17:08:59;;;;;;;12.60;5.80;;;20.00;99.90;;;;;;6157635;23;20004;-79
2023/10/10 17:11:30;;;;;;;15.93;7.53;;;20.00;99.90;;;;;;6215706;23;20004;-79
2023/10/10 17:14:12;;;;;;;16.83;6.80;;;19.90;99.90;;;;;;6212033;23;20009;-80
2023/10/10 17:16:47;;;;;;;11.30;5.47;;;19.80;99.90;;;;;;6186882;23;20015;-80
2023/10/10 17:19:20;;;;;;;11.85;5.68;;;19.80;99.90;;;;;;6214753;23;20001;-79
2023/10/10 17:21:51;;;;;;;17.83;7.75;;;19.80;99.90;;;;;;6190362;23;20042;-80
2023/10/10 17:24:21;;;;;;;13.52;5.47;;;19.70;99.90;;;;;;6190963;23;20009;-81
2023/10/10 17:26:53;;;;;;;19.25;7.75;;;19.60;99.90;;;;;;6191738;23;20017;-80
2023/10/10 17:29:26;;;;;;;32.30;13.93;;;19.60;99.90;;;;;;6218145;23;19984;-81
2023/10/10 17:32:17;;;;;;;15.65;7.50;;;19.50;99.90;;;;;;6167354;23;20005;-81
2023/10/10 17:34:53;;;;;;;20.33;9.73;;;19.50;99.90;;;;;;6188679;23;20007;-81
2023/10/10 17:37:28;;;;;;;14.17;6.03;;;19.30;99.90;;;;;;6219633;23;20435;-81
2023/10/10 17:40:22;;;;;;;16.45;7.88;;;19.30;99.90;;;;;;6220564;23;20321;-79
2023/10/10 17:43:20;;;;;;;16.45;8.00;;;19.20;99.90;;;;;;6219682;23;20036;-81
2023/10/10 17:45:54;;;;;;;20.23;9.13;;;19.10;99.90;;;;;;6194928;23;20087;-80
2023/10/10 17:48:38;;;;;;;13.98;6.15;;;19.10;99.90;;;;;;6168183;23;20601;-81
2023/10/10 17:51:17;;;;;;;15.07;6.38;;;19.00;99.90;;;;;;6175463;23;20031;-80
2023/10/10 17:53:57;;;;;;;13.48;5.97;;;19.20;99.90;;;;;;6173653;23;20009;-81
2023/10/10 17:56:37;;;;;;;11.63;6.00;;;18.90;99.90;;;;;;6192892;23;20162;-79
2023/10/10 17:59:43;;;;;;;11.45;5.20;;;18.80;99.90;;;;;;6219598;23;20000;-81
2023/10/10 18:02:53;;;;;;;15.20;6.35;;;18.70;99.90;;;;;;6195049;23;20012;-81
2023/10/10 18:06:41;;;;;;;17.77;8.43;;;18.60;99.90;;;;;;6097759;23;20012;-80
2023/10/10 18:10:14;;;;;;;12.02;5.72;;;18.50;99.90;;;;;;6099241;23;20136;-80
2023/10/10 18:13:41;;;;;;;11.85;6.03;;;18.30;99.90;;;;;;6111193;23;20010;-82
2023/10/10 19:01:22;;;;;;;10.85;6.25;;;17.30;99.90;;;;;;6100481;23;20037;-81
2023/10/10 19:08:20;;;;;;;11.57;6.28;;;17.10;99.90;;;;;;6056214;23;20048;-81
2023/10/10 21:18:38;;;;;;;12.68;6.72;;;15.50;99.90;;;;;;6272866;22;20016;-79
2023/10/10 21:21:25;;;;;;;12.38;6.47;;;15.50;99.90;;;;;;6236816;22;20039;-79
2023/10/10 21:24:09;;;;;;;14.77;6.43;;;15.40;99.90;;;;;;6239704;22;20011;-79
